createdAt,value
2023-04-10T00:02:06.813Z,58.06
2023-04-10T00:04:36.162Z,58.84
2023-04-10T00:07:05.792Z,58.96
2023-04-10T00:09:34.984Z,59.52
2023-04-10T00:12:04.380Z,60.09
2023-04-10T00:14:33.832Z,59.33
2023-04-10T00:17:03.162Z,59.90
2023-04-10T00:19:33.658Z,59.27
2023-04-10T00:22:03.069Z,59.54
2023-04-10T00:24:32.319Z,60.10
2023-04-10T00:27:01.769Z,58.92
2023-04-10T00:29:31.142Z,58.10
2023-04-10T00:32:00.542Z,58.09
2023-04-10T00:34:29.819Z,59.70
2023-04-10T00:37:00.762Z,58.67
2023-04-10T00:39:30.053Z,59.82
2023-04-10T00:41:59.876Z,58.82
2023-04-10T00:44:29.655Z,59.29
2023-04-10T00:46:59.116Z,60.44
2023-04-10T00:49:28.530Z,59.34
2023-04-10T00:51:59.879Z,59.10
2023-04-10T00:54:29.673Z,60.79
2023-04-10T00:56:59.792Z,59.79
2023-04-10T00:59:29.267Z,60.23
2023-04-10T01:01:59.252Z,60.71
2023-04-10T01:04:29.863Z,59.00
2023-04-10T01:07:10.497Z,59.84
2023-04-10T01:09:46.607Z,59.41
2023-04-10T01:12:30.181Z,60.60
2023-04-10T01:15:08.003Z,59.82
2023-04-10T01:17:45.038Z,60.36
2023-04-10T01:20:17.148Z,60.50
2023-04-10T01:23:07.765Z,60.12
2023-04-10T01:25:42.589Z,60.02
2023-04-10T01:28:44.636Z,59.48
2023-04-10T01:31:21.038Z,59.39
2023-04-10T01:33:55.381Z,59.67
2023-04-10T01:36:28.252Z,58.15
2023-04-10T01:38:59.802Z,58.07
2023-04-10T01:41:30.732Z,57.64
2023-04-10T01:44:01.681Z,57.58
2023-04-10T01:46:33.998Z,58.11
2023-04-10T01:49:05.363Z,58.56
2023-04-10T01:51:35.676Z,59.35
2023-04-10T01:54:10.549Z,60.02
2023-04-10T01:56:40.040Z,59.04
2023-04-10T01:59:09.979Z,59.31
2023-04-10T02:01:40.742Z,58.86
2023-04-10T02:04:11.171Z,59.71
2023-04-10T02:06:51.413Z,59.14
2023-04-10T02:09:24.550Z,59.02
2023-04-10T02:12:00.171Z,58.32
2023-04-10T02:14:35.223Z,60.13
2023-04-10T02:17:06.020Z,59.80
2023-04-10T02:19:36.930Z,59.22
2023-04-10T02:22:07.220Z,61.43
2023-04-10T02:24:37.110Z,61.22
2023-04-10T02:27:06.362Z,61.91
2023-04-10T02:29:35.895Z,60.37
2023-04-10T02:32:07.793Z,61.08
2023-04-10T02:34:37.279Z,60.23
2023-04-10T02:37:07.992Z,59.33
2023-04-10T02:39:37.422Z,59.67
2023-04-10T02:42:06.849Z,60.16
2023-04-10T02:44:36.835Z,60.11
2023-04-10T02:47:08.275Z,60.19
2023-04-10T02:49:39.825Z,62.09
2023-04-10T02:52:15.031Z,62.01
2023-04-10T02:54:44.382Z,60.76
2023-04-10T02:57:13.635Z,61.63
2023-04-10T02:59:43.567Z,62.21
2023-04-10T03:02:14.392Z,61.92
2023-04-10T03:04:44.230Z,61.85
2023-04-10T03:07:14.579Z,61.40
2023-04-10T03:09:44.099Z,60.57
2023-04-10T03:12:13.229Z,61.36
2023-04-10T03:14:42.736Z,61.06
2023-04-10T03:17:12.282Z,62.08
2023-04-10T03:19:43.503Z,62.00
2023-04-10T03:22:12.690Z,62.30
2023-04-10T03:24:43.057Z,61.91
2023-04-10T03:27:12.256Z,62.01
2023-04-10T03:29:41.668Z,60.57
2023-04-10T03:32:11.290Z,61.71
2023-04-10T03:34:42.068Z,62.51
2023-04-10T03:37:11.312Z,61.95
2023-04-10T03:39:40.845Z,62.20
2023-04-10T03:42:10.082Z,61.92
2023-04-10T03:44:39.697Z,63.29
2023-04-10T03:47:10.387Z,60.60
2023-04-10T03:49:39.889Z,61.15
2023-04-10T03:52:11.004Z,62.35
2023-04-10T03:54:41.236Z,59.85
2023-04-10T03:57:18.725Z,58.99
2023-04-10T03:59:48.427Z,58.60
2023-04-10T04:02:17.972Z,58.68
2023-04-10T04:04:47.547Z,60.36
2023-04-10T04:07:44.316Z,58.67
2023-04-10T04:10:35.446Z,60.76
2023-04-10T04:13:25.302Z,59.35
2023-04-10T04:16:21.008Z,58.64
2023-04-10T04:18:58.795Z,61.01
2023-04-10T04:21:35.328Z,61.24
2023-04-10T04:24:26.142Z,61.84
2023-04-10T04:27:01.541Z,60.37
2023-04-10T04:29:52.850Z,62.28
2023-04-10T04:32:28.086Z,61.63
2023-04-10T04:35:19.935Z,61.61
2023-04-10T04:38:20.227Z,61.85
2023-04-10T04:41:03.474Z,62.92
2023-04-10T04:43:53.547Z,62.43
2023-04-10T04:46:44.650Z,62.53
2023-04-10T04:49:33.075Z,61.51
2023-04-10T04:52:37.555Z,61.45
2023-04-10T04:55:45.777Z,62.41
2023-04-10T04:58:39.056Z,62.90
2023-04-10T05:01:15.915Z,62.73
2023-04-10T05:04:12.257Z,62.90
2023-04-10T05:07:08.166Z,62.73
2023-04-10T05:09:56.815Z,61.71
2023-04-10T05:12:45.714Z,62.73
2023-04-10T05:15:29.450Z,61.61
2023-04-10T05:18:28.083Z,62.10
2023-04-10T05:21:12.304Z,62.40
2023-04-10T05:24:04.575Z,62.33
2023-04-10T05:26:45.159Z,62.56
2023-04-10T05:29:33.569Z,63.40
2023-04-10T05:32:16.226Z,63.00
2023-04-10T05:35:06.940Z,63.50
2023-04-10T05:37:50.179Z,64.04
2023-04-10T05:40:38.645Z,64.11
2023-04-10T05:43:30.875Z,63.30
2023-04-10T05:46:25.851Z,64.25
2023-04-10T05:49:17.748Z,64.14
2023-04-10T05:52:05.844Z,64.58
2023-04-10T05:54:53.548Z,64.36
2023-04-10T05:57:35.352Z,64.02
2023-04-10T06:00:04.946Z,63.82
2023-04-10T06:02:43.807Z,63.87
2023-04-10T06:05:23.980Z,63.10
2023-04-10T06:08:01.223Z,63.62
2023-04-10T06:10:30.685Z,63.18
2023-04-10T06:13:01.033Z,62.66
2023-04-10T06:15:31.065Z,63.21
2023-04-10T06:18:00.760Z,62.82
2023-04-10T06:20:31.314Z,62.59
2023-04-10T06:23:01.224Z,62.11
2023-04-10T06:25:30.817Z,62.44
2023-04-10T06:28:01.833Z,62.43
2023-04-10T06:30:31.200Z,62.09
2023-04-10T06:33:00.989Z,61.96
2023-04-10T06:35:31.900Z,61.52
2023-04-10T06:38:01.499Z,60.68
2023-04-10T06:40:34.136Z,61.26
2023-04-10T06:43:03.806Z,60.49
2023-04-10T06:45:40.034Z,60.79
2023-04-10T06:48:09.643Z,61.05
2023-04-10T06:50:40.366Z,60.82
2023-04-10T06:53:09.976Z,60.99
2023-04-10T06:55:39.454Z,60.23
2023-04-10T06:58:08.804Z,60.73
2023-04-10T07:00:38.627Z,60.33
2023-04-10T07:03:08.196Z,60.26
2023-04-10T07:05:37.958Z,60.08
2023-04-10T07:08:10.215Z,60.03
2023-04-10T07:10:39.502Z,59.70
2023-04-10T07:13:09.200Z,59.51
2023-04-10T07:15:38.410Z,59.62
2023-04-10T07:18:07.869Z,59.51
2023-04-10T07:20:37.139Z,59.64
2023-04-10T07:23:06.733Z,59.39
2023-04-10T07:25:37.537Z,59.67
2023-04-10T07:28:07.281Z,59.83
2023-04-10T07:30:37.028Z,59.50
2023-04-10T07:33:07.000Z,59.49
2023-04-10T07:35:36.830Z,59.35
2023-04-10T07:38:06.566Z,59.26
2023-04-10T07:40:37.465Z,59.17
2023-04-10T07:43:07.003Z,59.17
2023-04-10T07:45:36.750Z,59.30
2023-04-10T07:48:06.912Z,59.33
2023-04-10T07:50:36.389Z,59.26
2023-04-10T07:53:08.193Z,59.40
2023-04-10T07:55:41.859Z,59.10
2023-04-10T07:58:11.924Z,58.94
2023-04-10T08:00:41.135Z,59.09
2023-04-10T08:03:10.684Z,59.12
2023-04-10T08:05:40.060Z,58.69
2023-04-10T08:08:09.642Z,58.75
2023-04-10T08:10:40.408Z,57.93
2023-04-10T08:13:10.560Z,58.57
2023-04-10T08:15:39.767Z,58.48
2023-04-10T08:18:09.179Z,57.80
2023-04-10T08:20:38.821Z,57.59
2023-04-10T08:23:19.904Z,58.12
2023-04-10T08:25:51.902Z,58.11
2023-04-10T08:28:21.446Z,57.95
2023-04-10T08:30:50.601Z,56.33
2023-04-10T08:33:19.946Z,56.72
2023-04-10T08:35:49.715Z,56.93
2023-04-10T08:38:21.532Z,56.72
2023-04-10T08:40:52.372Z,56.91
2023-04-10T08:43:22.190Z,56.26
2023-04-10T08:45:52.172Z,56.17
2023-04-10T08:48:22.898Z,56.44
2023-04-10T08:50:52.965Z,55.80
2023-04-10T08:53:25.447Z,54.81
2023-04-10T08:55:56.740Z,55.91
2023-04-10T08:58:26.652Z,56.74
2023-04-10T09:00:56.258Z,55.14
2023-04-10T09:03:26.856Z,56.56
2023-04-10T09:05:57.977Z,56.65
2023-04-10T09:08:27.713Z,55.74
2023-04-10T09:10:58.230Z,55.77
2023-04-10T09:13:41.426Z,56.51
2023-04-10T09:16:11.656Z,56.04
2023-04-10T09:18:46.699Z,55.74
2023-04-10T09:21:17.744Z,56.37
2023-04-10T09:23:48.444Z,55.69
2023-04-10T09:26:30.005Z,56.05
2023-04-10T09:29:01.760Z,54.82
2023-04-10T09:31:32.689Z,55.98
2023-04-10T09:34:14.147Z,55.00
2023-04-10T09:36:44.061Z,55.20
2023-04-10T09:39:14.502Z,54.48
2023-04-10T09:41:52.857Z,54.59
2023-04-10T09:44:35.166Z,55.38
2023-04-10T09:47:19.221Z,54.55
2023-04-10T09:49:49.511Z,54.73
2023-04-10T09:52:22.693Z,54.72
2023-04-10T09:54:52.362Z,55.55
2023-04-10T09:57:23.306Z,55.26
2023-04-10T09:59:53.800Z,54.86
2023-04-10T10:02:24.917Z,54.26
2023-04-10T10:04:55.075Z,54.71
2023-04-10T10:07:25.613Z,54.99
2023-04-10T10:09:55.610Z,54.17
2023-04-10T10:12:29.896Z,54.16
2023-04-10T10:15:08.784Z,52.39
2023-04-10T10:17:44.964Z,53.45
2023-04-10T10:20:19.088Z,53.56
2023-04-10T10:22:51.485Z,53.55
2023-04-10T10:25:22.000Z,52.02
2023-04-10T10:27:54.906Z,53.19
2023-04-10T10:30:29.937Z,53.23
2023-04-10T10:33:01.023Z,52.25
2023-04-10T10:35:33.192Z,52.56
2023-04-10T10:38:03.967Z,51.78
2023-04-10T10:40:39.854Z,52.69
2023-04-10T10:43:17.589Z,53.68
2023-04-10T10:45:53.746Z,52.63
2023-04-10T10:48:23.117Z,53.66
2023-04-10T10:50:55.045Z,54.12
2023-04-10T10:53:41.461Z,53.79
2023-04-10T10:56:37.218Z,51.93
2023-04-10T10:59:07.797Z,52.25
2023-04-10T11:01:37.558Z,52.04
2023-04-10T11:04:21.317Z,53.21
2023-04-10T11:06:53.438Z,52.44
2023-04-10T11:09:51.698Z,52.87
2023-04-10T11:12:23.494Z,53.48
2023-04-10T11:15:01.566Z,53.77
2023-04-10T11:17:52.409Z,53.45
2023-04-10T11:20:27.294Z,51.51
2023-04-10T11:23:11.993Z,52.87
2023-04-10T11:25:51.505Z,52.70
2023-04-10T11:28:40.774Z,53.05
2023-04-10T11:31:19.752Z,50.65
2023-04-10T11:33:50.385Z,50.89
2023-04-10T11:36:19.838Z,51.37
2023-04-10T11:38:59.782Z,50.16
2023-04-10T11:41:30.890Z,50.05
2023-04-10T11:44:01.576Z,49.96
2023-04-10T11:46:32.728Z,50.28
2023-04-10T11:49:04.129Z,50.15
2023-04-10T11:51:34.355Z,51.77
2023-04-10T11:54:08.641Z,49.94
2023-04-10T11:56:39.367Z,49.85
2023-04-10T11:59:11.401Z,49.91
2023-04-10T12:01:43.223Z,48.59
2023-04-10T12:04:17.373Z,51.42
2023-04-10T12:06:48.505Z,48.45
2023-04-10T12:09:20.020Z,49.96
2023-04-10T12:11:53.410Z,47.58
2023-04-10T12:14:24.237Z,46.39
2023-04-10T12:16:54.988Z,47.97
2023-04-10T12:19:24.844Z,46.50
2023-04-10T12:21:54.410Z,48.59
2023-04-10T12:24:42.757Z,49.24
2023-04-10T12:27:18.317Z,48.43
2023-04-10T12:29:48.244Z,46.98
2023-04-10T12:32:19.207Z,48.87
2023-04-10T12:34:52.758Z,49.68
2023-04-10T12:37:22.165Z,49.21
2023-04-10T12:39:51.939Z,47.69
2023-04-10T12:42:22.955Z,48.66
2023-04-10T12:44:54.303Z,48.35
2023-04-10T12:47:25.397Z,50.00
2023-04-10T12:50:08.537Z,48.64
2023-04-10T12:52:38.686Z,50.58
2023-04-10T12:55:14.336Z,49.70
2023-04-10T12:57:45.209Z,48.87
2023-04-10T13:00:18.536Z,48.43
2023-04-10T13:02:50.143Z,49.76
2023-04-10T13:05:21.696Z,47.47
2023-04-10T13:07:52.966Z,47.12
2023-04-10T13:10:24.526Z,47.84
2023-04-10T13:12:53.973Z,47.28
2023-04-10T13:15:24.462Z,48.21
2023-04-10T13:17:55.459Z,48.06
2023-04-10T13:20:25.442Z,47.75
2023-04-10T13:22:54.758Z,47.49
2023-04-10T13:25:24.111Z,48.88
2023-04-10T13:27:53.172Z,46.59
2023-04-10T13:30:22.326Z,48.42
2023-04-10T13:32:51.538Z,49.13
2023-04-10T13:35:22.420Z,48.18
2023-04-10T13:37:54.337Z,48.86
2023-04-10T13:40:24.175Z,50.64
2023-04-10T13:42:53.411Z,50.95
2023-04-10T13:45:23.038Z,50.72
2023-04-10T13:47:52.411Z,51.67
2023-04-10T13:50:23.590Z,50.22
2023-04-10T13:52:53.767Z,50.17
2023-04-10T13:55:23.560Z,48.63
2023-04-10T13:57:53.303Z,49.42
2023-04-10T14:00:23.406Z,49.25
2023-04-10T14:02:53.145Z,49.14
2023-04-10T14:05:24.319Z,48.65
2023-04-10T14:07:56.974Z,44.58
2023-04-10T14:10:26.571Z,44.28
2023-04-10T14:12:55.955Z,44.48
2023-04-10T14:15:25.522Z,46.09
2023-04-10T14:17:55.048Z,47.68
2023-04-10T14:20:26.063Z,46.16
2023-04-10T14:22:55.363Z,44.83
2023-04-10T14:25:24.803Z,42.08
2023-04-10T14:27:54.532Z,45.69
2023-04-10T14:30:26.013Z,45.85
2023-04-10T14:32:55.331Z,41.70
2023-04-10T14:35:26.152Z,44.34
2023-04-10T14:37:55.657Z,43.75
2023-04-10T14:40:26.452Z,44.47
2023-04-10T14:42:55.805Z,42.46
2023-04-10T14:45:25.959Z,38.59
2023-04-10T14:47:55.885Z,40.93
2023-04-10T14:50:27.009Z,41.15
2023-04-10T14:52:56.195Z,41.47
2023-04-10T14:55:25.848Z,40.42
2023-04-10T14:57:56.602Z,40.80
2023-04-10T15:00:29.772Z,39.40
2023-04-10T15:03:00.419Z,40.47
2023-04-10T15:05:35.465Z,39.21
2023-04-10T15:08:11.181Z,39.31
2023-04-10T15:10:43.928Z,35.70
2023-04-10T15:13:13.330Z,35.45
2023-04-10T15:15:43.019Z,38.61
2023-04-10T15:18:12.705Z,37.51
2023-04-10T15:20:43.775Z,35.14
2023-04-10T15:23:13.038Z,36.95
2023-04-10T15:25:42.970Z,37.13
2023-04-10T15:28:12.196Z,37.11
2023-04-10T15:30:48.728Z,33.52
2023-04-10T15:33:18.476Z,36.98
2023-04-10T15:35:52.932Z,37.40
2023-04-10T15:38:26.127Z,35.35
2023-04-10T15:40:55.701Z,36.24
2023-04-10T15:43:24.897Z,33.19
2023-04-10T15:45:54.260Z,34.47
2023-04-10T15:48:27.739Z,35.09
2023-04-10T15:50:58.578Z,34.67
2023-04-10T15:53:30.855Z,34.79
2023-04-10T15:56:00.668Z,36.50
2023-04-10T15:58:30.484Z,35.95
2023-04-10T16:01:00.604Z,34.26
2023-04-10T16:03:32.257Z,35.32
2023-04-10T16:06:03.360Z,33.42
2023-04-10T16:08:32.741Z,33.54
2023-04-10T16:11:03.450Z,36.05
2023-04-10T16:13:34.225Z,35.48
2023-04-10T16:16:08.258Z,36.42
2023-04-10T16:18:37.945Z,33.75
2023-04-10T16:21:13.048Z,35.29
2023-04-10T16:23:46.644Z,33.76
2023-04-10T16:26:19.622Z,34.45
2023-04-10T16:28:51.729Z,34.05
2023-04-10T16:31:21.463Z,34.89
2023-04-10T16:33:51.747Z,33.92
2023-04-10T16:36:22.807Z,32.87
2023-04-10T16:38:52.039Z,34.57
2023-04-10T16:41:23.000Z,34.35
2023-04-10T16:43:52.517Z,33.57
2023-04-10T16:46:23.752Z,33.29
2023-04-10T16:48:53.591Z,33.59
2023-04-10T16:51:24.841Z,34.20
2023-04-10T16:53:55.554Z,34.84
2023-04-10T16:56:26.431Z,34.81
2023-04-10T16:59:05.489Z,34.69
2023-04-10T17:01:39.804Z,34.25
2023-04-10T17:04:10.068Z,35.11
2023-04-10T17:06:41.315Z,35.17
2023-04-10T17:09:10.612Z,35.45
2023-04-10T17:11:40.357Z,35.94
2023-04-10T17:14:10.646Z,36.32
2023-04-10T17:16:40.710Z,36.69
2023-04-10T17:19:10.725Z,37.00
2023-04-10T17:21:41.922Z,36.98
2023-04-10T17:24:11.392Z,37.40
2023-04-10T17:26:42.894Z,37.53
2023-04-10T17:29:12.405Z,38.04
2023-04-10T17:31:42.144Z,38.46
2023-04-10T17:34:11.510Z,38.60
2023-04-10T17:36:42.730Z,38.55
2023-04-10T17:39:12.266Z,38.93
2023-04-10T17:41:41.728Z,38.94
2023-04-10T17:44:10.691Z,38.84
2023-04-10T17:46:40.396Z,39.69
2023-04-10T17:49:09.479Z,39.74
2023-04-10T17:51:40.660Z,40.19
2023-04-10T17:54:11.814Z,40.59
2023-04-10T17:56:42.482Z,40.84
2023-04-10T17:59:12.668Z,41.07
2023-04-10T18:01:42.639Z,41.16
2023-04-10T18:04:12.140Z,41.33
2023-04-10T18:06:48.987Z,41.36
2023-04-10T18:09:20.315Z,41.57
2023-04-10T18:11:50.952Z,41.85
2023-04-10T18:14:20.397Z,41.81
2023-04-10T18:16:50.361Z,41.83
2023-04-10T18:19:21.298Z,42.00
2023-04-10T18:21:51.732Z,42.52
2023-04-10T18:24:22.676Z,42.70
2023-04-10T18:26:52.477Z,42.95
2023-04-10T18:29:22.811Z,43.23
2023-04-10T18:31:52.932Z,43.25
2023-04-10T18:34:26.954Z,43.25
2023-04-10T18:36:59.525Z,43.37
2023-04-10T18:39:31.595Z,43.63
2023-04-10T18:42:04.028Z,44.10
2023-04-10T18:44:34.872Z,44.14
2023-04-10T18:47:06.442Z,44.05
2023-04-10T18:49:38.421Z,44.25
2023-04-10T18:52:08.614Z,44.52
2023-04-10T18:54:41.703Z,44.43
2023-04-10T18:57:13.932Z,44.39
2023-04-10T18:59:43.693Z,44.65
2023-04-10T19:02:15.788Z,44.82
2023-04-10T19:04:45.575Z,44.83
2023-04-10T19:07:15.611Z,44.92
2023-04-10T19:09:50.572Z,44.93
2023-04-10T19:12:20.310Z,45.06
2023-04-10T19:14:51.282Z,45.38
2023-04-10T19:17:25.207Z,45.30
2023-04-10T19:19:57.523Z,45.30
2023-04-10T19:22:28.289Z,45.83
2023-04-10T19:25:04.063Z,45.39
2023-04-10T19:27:37.579Z,45.33
2023-04-10T19:30:12.892Z,45.60
2023-04-10T19:32:46.727Z,45.67
2023-04-10T19:35:16.843Z,46.10
2023-04-10T19:37:49.942Z,46.04
2023-04-10T19:40:22.801Z,46.18
2023-04-10T19:42:52.771Z,46.61
2023-04-10T19:45:22.254Z,47.16
2023-04-10T19:47:56.241Z,47.05
2023-04-10T19:50:26.293Z,47.19
2023-04-10T19:52:56.561Z,47.20
2023-04-10T19:55:29.968Z,47.42
2023-04-10T19:58:01.070Z,47.11
2023-04-10T20:00:32.438Z,47.03
2023-04-10T20:03:08.781Z,47.16
2023-04-10T20:05:38.341Z,46.98
2023-04-10T20:08:07.601Z,47.14
2023-04-10T20:10:38.861Z,47.51
2023-04-10T20:13:15.419Z,47.01
2023-04-10T20:15:45.505Z,47.21
2023-04-10T20:18:16.380Z,47.09
2023-04-10T20:20:46.739Z,47.07
2023-04-10T20:23:18.066Z,47.08
2023-04-10T20:25:49.007Z,47.27
2023-04-10T20:28:19.157Z,47.53
2023-04-10T20:30:50.328Z,48.63
2023-04-10T20:33:28.317Z,47.77
2023-04-10T20:35:58.383Z,48.18
2023-04-10T20:38:28.281Z,48.70
2023-04-10T20:40:58.816Z,48.47
2023-04-10T20:43:29.027Z,48.16
2023-04-10T20:46:00.868Z,47.96
2023-04-10T20:48:31.335Z,48.34
2023-04-10T20:51:00.810Z,48.19
2023-04-10T20:53:35.378Z,48.12
2023-04-10T20:56:09.260Z,48.54
2023-04-10T20:58:40.556Z,48.03
2023-04-10T21:01:10.921Z,49.49
2023-04-10T21:03:40.852Z,48.25
2023-04-10T21:06:10.758Z,48.27
2023-04-10T21:08:40.136Z,48.62
2023-04-10T21:11:10.899Z,48.39
2023-04-10T21:13:40.423Z,48.56
2023-04-10T21:16:10.006Z,48.52
2023-04-10T21:18:39.585Z,48.59
2023-04-10T21:21:09.503Z,48.79
2023-04-10T21:23:39.080Z,48.74
2023-04-10T21:26:10.229Z,48.83
2023-04-10T21:28:39.688Z,48.72
2023-04-10T21:31:09.032Z,48.54
2023-04-10T21:33:38.311Z,48.62
2023-04-10T21:36:08.117Z,48.70
2023-04-10T21:38:37.759Z,48.75
2023-04-10T21:41:07.208Z,49.71
2023-04-10T21:43:38.821Z,48.63
2023-04-10T21:46:08.906Z,50.22
2023-04-10T21:48:38.522Z,49.27
2023-04-10T21:51:07.916Z,49.26
2023-04-10T21:53:37.177Z,49.26
2023-04-10T21:56:06.810Z,49.46
2023-04-10T21:58:38.173Z,50.33
2023-04-10T22:01:09.155Z,49.46
2023-04-10T22:03:39.151Z,49.97
2023-04-10T22:06:08.943Z,49.34
2023-04-10T22:08:40.162Z,49.45
2023-04-10T22:11:09.731Z,49.33
2023-04-10T22:13:40.287Z,49.39
2023-04-10T22:16:10.213Z,49.58
2023-04-10T22:18:39.327Z,49.46
2023-04-10T22:21:09.242Z,51.45
2023-04-10T22:23:38.640Z,49.90
2023-04-10T22:26:08.240Z,49.72
2023-04-10T22:28:37.419Z,49.35
2023-04-10T22:31:14.751Z,49.66
2023-04-10T22:33:44.521Z,50.60
2023-04-10T22:36:14.234Z,50.53
2023-04-10T22:38:44.061Z,49.97
2023-04-10T22:41:13.193Z,49.80
2023-04-10T22:43:42.561Z,49.82
2023-04-10T22:46:13.140Z,49.56
2023-04-10T22:48:43.158Z,50.96
2023-04-10T22:51:13.500Z,50.18
2023-04-10T22:53:43.219Z,51.16
2023-04-10T22:56:12.788Z,53.00
2023-04-10T22:58:42.431Z,52.55
2023-04-10T23:01:13.404Z,51.63
2023-04-10T23:03:43.210Z,51.06
2023-04-10T23:06:12.382Z,50.46
2023-04-10T23:08:42.352Z,51.97
2023-04-10T23:11:11.511Z,53.47
2023-04-10T23:13:42.699Z,53.95
2023-04-10T23:16:13.612Z,52.24
2023-04-10T23:18:43.138Z,50.81
2023-04-10T23:21:12.724Z,51.36
2023-04-10T23:23:42.103Z,51.57
2023-04-10T23:26:12.211Z,52.42
2023-04-10T23:28:41.972Z,51.59
2023-04-10T23:31:12.631Z,52.04
2023-04-10T23:33:42.170Z,51.52
2023-04-10T23:36:11.703Z,51.57
2023-04-10T23:38:41.392Z,50.69
2023-04-10T23:41:10.712Z,51.56
2023-04-10T23:43:40.233Z,51.25
2023-04-10T23:46:09.802Z,51.23
2023-04-10T23:48:40.439Z,50.75
2023-04-10T23:51:10.366Z,51.35
2023-04-10T23:53:39.945Z,51.94
2023-04-10T23:56:09.918Z,52.26
2023-04-10T23:58:39.463Z,51.62
